Time;durP1;ratioP1;P1;durP2;ratioP2;P2;SDS_P1;SDS_P2;PMS_P1;PMS_P2;Temp;Humidity;BMP_temperature;BMP_pressure;BME280_temperature;BME280_humidity;BME280_pressure;Samples;Min_cycle;Max_cycle;Signal;HPM_P1;HPM_P2
2022/08/24 00:01:00;;;;;;;39.03;33.50;;;19.70;99.90;;;;;;5076866;27;20054;-90
2022/08/24 00:03:26;;;;;;;36.75;32.80;;;19.60;99.90;;;;;;5077192;27;20434;-91
2022/08/24 00:05:52;;;;;;;37.83;32.90;;;19.60;99.90;;;;;;5077762;27;20070;-90
2022/08/24 00:08:19;;;;;;;36.72;32.83;;;19.60;99.90;;;;;;5076790;27;20047;-89
2022/08/24 00:10:45;;;;;;;35.47;29.48;;;19.60;99.90;;;;;;5077183;27;20039;-90
2022/08/24 00:13:12;;;;;;;37.38;31.40;;;19.70;99.90;;;;;;5092865;27;20087;-90
2022/08/24 00:15:39;;;;;;;37.63;31.45;;;19.50;99.90;;;;;;5093337;27;20120;-90
2022/08/24 00:18:04;;;;;;;38.50;32.30;;;19.50;99.90;;;;;;5074929;27;20047;-90
2022/08/24 00:20:31;;;;;;;36.38;31.27;;;19.50;99.90;;;;;;5093611;27;20043;-91
2022/08/24 00:22:56;;;;;;;35.85;31.63;;;19.50;99.90;;;;;;5093757;27;20042;-91
2022/08/24 00:25:22;;;;;;;34.45;30.45;;;19.40;99.90;;;;;;5076156;27;20054;-89
2022/08/24 00:27:48;;;;;;;38.17;31.90;;;19.40;99.90;;;;;;5094544;27;20092;-90
2022/08/24 00:30:16;;;;;;;38.42;31.92;;;19.30;99.90;;;;;;5092748;27;20039;-90
2022/08/24 00:32:44;;;;;;;32.88;27.33;;;19.30;99.90;;;;;;5093497;27;20051;-90
2022/08/24 00:35:11;;;;;;;32.97;28.67;;;19.30;99.90;;;;;;5075853;27;20042;-89
2022/08/24 00:37:38;;;;;;;38.47;31.88;;;19.20;99.90;;;;;;5076554;27;20047;-92
2022/08/24 00:40:10;;;;;;;33.50;28.63;;;19.20;99.90;;;;;;5076993;27;20499;-90
2022/08/24 00:42:39;;;;;;;31.83;27.80;;;19.20;99.90;;;;;;5109551;27;20039;-91
2022/08/24 00:45:08;;;;;;;34.28;25.95;;;19.20;99.90;;;;;;5094080;27;20047;-91
2022/08/24 00:47:51;;;;;;;38.05;29.52;;;19.10;99.90;;;;;;5093371;27;20032;-90
2022/08/24 00:50:39;;;;;;;31.65;28.25;;;19.10;99.90;;;;;;5093457;27;20103;-90
2022/08/24 00:53:14;;;;;;;32.53;28.65;;;19.00;99.90;;;;;;5092992;27;20047;-91
2022/08/24 00:55:48;;;;;;;30.50;27.20;;;19.00;99.90;;;;;;5092818;27;20043;-90
2022/08/24 00:58:19;;;;;;;33.85;28.40;;;19.00;99.90;;;;;;5093935;27;20397;-91
2022/08/24 01:00:52;;;;;;;29.20;26.05;;;18.90;99.90;;;;;;5092219;27;20040;-90
2022/08/24 01:03:18;;;;;;;;;;;18.90;99.90;;;;;;5093611;27;20050;-90
2022/08/24 01:05:46;;;;;;;28.23;25.17;;;18.90;99.90;;;;;;5093412;27;19941;-91
2022/08/24 01:08:13;;;;;;;31.90;25.30;;;18.80;99.90;;;;;;5092801;27;20035;-89
2022/08/24 01:10:44;;;;;;;29.83;23.45;;;18.90;99.90;;;;;;5076782;27;20402;-91
2022/08/24 01:13:12;;;;;;;30.05;24.60;;;18.80;99.90;;;;;;5092319;27;20040;-90
2022/08/24 01:15:42;;;;;;;31.73;26.65;;;18.80;99.90;;;;;;5093274;27;20047;-90
2022/08/24 01:21:33;;;;;;;27.25;24.30;;;18.80;99.90;;;;;;5111287;27;20059;-90
2022/08/24 01:24:02;;;;;;;27.60;24.40;;;18.80;99.90;;;;;;5100380;27;20049;-90
2022/08/24 01:26:38;;;;;;;28.00;24.33;;;18.90;99.90;;;;;;5102660;27;20135;-92
2022/08/24 01:29:13;;;;;;;29.25;25.00;;;18.70;99.90;;;;;;5101986;27;20031;-90
2022/08/24 01:31:39;;;;;;;35.70;28.70;;;18.70;99.90;;;;;;5097070;28;20047;-91
2022/08/24 01:34:05;;;;;;;36.38;30.60;;;18.70;99.90;;;;;;5077196;28;20127;-90
2022/08/24 01:36:38;;;;;;;33.28;29.65;;;18.70;99.90;;;;;;5077720;28;20072;-90
2022/08/24 01:39:14;;;;;;;38.25;29.95;;;18.80;99.90;;;;;;5093275;28;20047;-90
2022/08/24 01:41:41;;;;;;;32.58;26.42;;;18.70;99.90;;;;;;5093645;28;20072;-89
2022/08/24 01:44:08;;;;;;;33.78;29.00;;;18.80;99.90;;;;;;5093716;28;20039;-90
2022/08/24 01:46:34;;;;;;;33.85;28.70;;;18.70;99.90;;;;;;5076570;28;20057;-91
2022/08/24 01:49:00;;;;;;;36.38;29.92;;;18.70;99.90;;;;;;5093858;28;20039;-89
2022/08/24 01:51:30;;;;;;;36.55;30.27;;;18.70;99.90;;;;;;5092555;28;20047;-91
2022/08/24 01:53:58;;;;;;;35.53;29.20;;;18.70;99.90;;;;;;5094525;28;20031;-90
2022/08/24 01:56:24;;;;;;;32.67;26.08;;;18.60;99.90;;;;;;5076222;28;20039;-90
2022/08/24 01:58:50;;;;;;;29.70;26.45;;;18.60;99.90;;;;;;5092479;28;20052;-90
2022/08/24 02:01:16;;;;;;;30.63;27.05;;;18.60;99.90;;;;;;5075066;28;20050;-90
2022/08/24 02:03:43;;;;;;;35.20;27.92;;;18.60;99.90;;;;;;5075546;28;20088;-90
2022/08/24 02:06:11;;;;;;;30.58;27.35;;;18.50;99.90;;;;;;5092904;28;20551;-91
2022/08/24 02:08:37;;;;;;;33.20;25.52;;;18.80;99.90;;;;;;5091966;28;20137;-89
2022/08/24 02:11:07;;;;;;;30.73;27.02;;;18.50;99.90;;;;;;5075921;28;20043;-89
2022/08/24 02:13:34;;;;;;;37.10;27.02;;;18.40;99.90;;;;;;5091908;28;20444;-90
2022/08/24 02:16:00;;;;;;;33.45;27.75;;;18.60;99.90;;;;;;5075584;28;20099;-90
2022/08/24 02:18:26;;;;;;;35.65;28.25;;;18.60;99.90;;;;;;5075146;28;20486;-91
2022/08/24 02:20:52;;;;;;;36.70;26.42;;;18.30;99.90;;;;;;5075470;28;20039;-90
2022/08/24 02:23:19;;;;;;;33.00;29.20;;;18.30;99.90;;;;;;5075995;28;20104;-90
2022/08/24 02:25:45;;;;;;;33.80;25.25;;;19.00;99.90;;;;;;5091783;28;20043;-90
2022/08/24 02:28:11;;;;;;;31.33;26.10;;;18.30;99.90;;;;;;5076037;28;20043;-91
2022/08/24 02:30:38;;;;;;;31.30;26.00;;;18.20;99.90;;;;;;5075205;28;20049;-90
2022/08/24 02:33:06;;;;;;;34.47;28.40;;;18.30;99.90;;;;;;5075065;28;20054;-90
2022/08/24 02:35:31;;;;;;;33.10;25.75;;;18.30;99.90;;;;;;5091598;28;20088;-90
2022/08/24 02:37:57;;;;;;;31.83;26.70;;;18.30;99.90;;;;;;5091895;28;20054;-91
2022/08/24 02:40:23;;;;;;;31.60;27.40;;;18.50;99.90;;;;;;5075541;27;20504;-90
2022/08/24 02:42:49;;;;;;;33.65;26.90;;;18.30;99.90;;;;;;5077054;27;20154;-90
2022/08/24 02:45:15;;;;;;;33.80;26.08;;;18.30;99.90;;;;;;5078950;27;20035;-89
2022/08/24 02:47:41;;;;;;;32.25;26.40;;;18.20;99.90;;;;;;5095516;27;20042;-90
2022/08/24 02:50:10;;;;;;;27.55;23.38;;;18.30;99.90;;;;;;5078582;27;20031;-90
2022/08/24 02:52:38;;;;;;;30.75;26.33;;;18.20;99.90;;;;;;5111913;27;20046;-90
2022/08/24 02:55:05;;;;;;;32.55;25.73;;;18.20;99.90;;;;;;5096072;27;20044;-90
2022/08/24 02:57:31;;;;;;;28.50;24.63;;;18.20;99.90;;;;;;5096269;27;20122;-90
2022/08/24 02:59:57;;;;;;;30.95;27.35;;;18.20;99.90;;;;;;5078384;27;20184;-91
2022/08/24 03:02:22;;;;;;;28.17;24.17;;;18.20;99.90;;;;;;5095603;27;20043;-91
2022/08/24 03:04:48;;;;;;;31.83;25.70;;;18.10;99.90;;;;;;5077969;27;20042;-90
2022/08/24 03:07:14;;;;;;;37.38;26.02;;;18.10;99.90;;;;;;5095005;27;20039;-89
2022/08/24 03:09:40;;;;;;;36.65;30.63;;;18.10;99.90;;;;;;5077564;27;20042;-89
2022/08/24 03:12:05;;;;;;;29.08;25.88;;;18.10;99.90;;;;;;5077839;27;20079;-90
2022/08/24 03:14:32;;;;;;;37.08;30.83;;;18.10;99.90;;;;;;5078680;27;20043;-90
2022/08/24 03:16:57;;;;;;;34.08;25.95;;;18.10;99.90;;;;;;5077980;27;20566;-89
2022/08/24 03:19:23;;;;;;;31.40;26.17;;;18.10;99.90;;;;;;5078466;27;20091;-90
2022/08/24 03:21:49;;;;;;;32.00;25.70;;;18.00;99.90;;;;;;5077495;27;20047;-90
2022/08/24 03:24:15;;;;;;;28.90;25.05;;;18.00;99.90;;;;;;5077964;27;20101;-90
2022/08/24 03:26:41;;;;;;;28.38;25.27;;;18.00;99.90;;;;;;5077965;27;20092;-90
2022/08/24 03:29:07;;;;;;;29.92;25.23;;;18.00;99.90;;;;;;5077935;27;20448;-91
2022/08/24 03:31:33;;;;;;;31.02;25.30;;;18.00;99.90;;;;;;5077978;27;20158;-90
2022/08/24 03:33:59;;;;;;;25.73;22.50;;;17.90;99.90;;;;;;5077401;27;20496;-90
2022/08/24 03:36:24;;;;;;;26.52;23.67;;;18.30;99.90;;;;;;5078426;27;20131;-91
2022/08/24 03:39:07;;;;;;;27.48;23.70;;;17.90;99.90;;;;;;5130765;27;20379;-90
2022/08/24 03:41:33;;;;;;;29.98;24.92;;;17.90;99.90;;;;;;5112387;28;20065;-90
2022/08/24 03:43:59;;;;;;;29.73;25.25;;;18.10;99.90;;;;;;5128802;28;20044;-91
2022/08/24 03:46:27;;;;;;;29.85;23.85;;;17.80;99.90;;;;;;5095265;28;20073;-90
2022/08/24 03:48:57;;;;;;;24.20;21.70;;;17.80;99.90;;;;;;5128144;28;20044;-90
2022/08/24 03:51:26;;;;;;;26.70;21.77;;;17.80;99.90;;;;;;5112746;28;20063;-91
2022/08/24 03:53:53;;;;;;;29.33;25.00;;;17.80;99.90;;;;;;5111085;28;20071;-91
2022/08/24 03:56:19;;;;;;;30.35;26.00;;;17.80;99.90;;;;;;5112442;28;20457;-90
2022/08/24 03:58:46;;;;;;;35.67;26.92;;;17.80;99.90;;;;;;5128970;28;20046;-91
2022/08/24 04:01:12;;;;;;;29.33;25.50;;;17.70;99.90;;;;;;5111367;28;20486;-90
2022/08/24 04:03:42;;;;;;;26.10;23.38;;;17.70;99.90;;;;;;5112350;28;20142;-90
2022/08/24 04:06:08;;;;;;;31.05;25.13;;;17.70;99.90;;;;;;5127627;28;20051;-90
2022/08/24 04:08:34;;;;;;;27.75;24.70;;;17.70;99.90;;;;;;5112126;28;20050;-90
2022/08/24 04:11:01;;;;;;;25.42;22.58;;;17.70;99.90;;;;;;5111095;28;20421;-90
2022/08/24 04:13:30;;;;;;;27.80;22.48;;;17.70;99.90;;;;;;5128870;28;20134;-91
2022/08/24 04:15:57;;;;;;;24.73;21.85;;;17.70;99.90;;;;;;5111226;28;20043;-91
2022/08/24 04:18:23;;;;;;;24.92;22.13;;;17.60;99.90;;;;;;5110768;28;20086;-90
2022/08/24 04:20:49;;;;;;;23.42;20.85;;;17.60;99.90;;;;;;5111918;28;20079;-91
2022/08/24 04:23:16;;;;;;;28.38;22.55;;;17.80;99.90;;;;;;5093414;28;20031;-90
2022/08/24 04:25:46;;;;;;;24.98;22.23;;;17.60;99.90;;;;;;5111568;28;20040;-90
2022/08/24 04:28:19;;;;;;;25.52;22.67;;;17.60;99.90;;;;;;5110733;28;20043;-90
2022/08/24 04:30:49;;;;;;;28.00;23.60;;;17.60;99.90;;;;;;5128530;28;20130;-90
2022/08/24 04:33:16;;;;;;;26.05;23.25;;;17.60;99.90;;;;;;5111651;28;20039;-90
2022/08/24 04:35:46;;;;;;;24.08;21.40;;;17.60;99.90;;;;;;5111006;28;20035;-90
2022/08/24 04:38:13;;;;;;;26.02;20.48;;;18.00;99.90;;;;;;5111340;28;20061;-90
2022/08/24 04:40:41;;;;;;;29.33;22.90;;;17.60;99.90;;;;;;5111300;28;20031;-91
2022/08/24 04:43:07;;;;;;;22.08;19.70;;;17.60;99.90;;;;;;5129273;28;20157;-90
2022/08/24 04:45:38;;;;;;;26.65;22.27;;;17.60;99.90;;;;;;5113767;28;20039;-90
2022/08/24 04:48:04;;;;;;;24.88;21.30;;;17.60;99.90;;;;;;5135000;28;20047;-90
2022/08/24 04:50:37;;;;;;;25.63;19.70;;;17.60;99.90;;;;;;5105328;28;20068;-90
2022/08/24 04:53:04;;;;;;;27.33;24.35;;;17.60;99.90;;;;;;5105055;28;20035;-90
2022/08/24 04:55:30;;;;;;;30.13;23.48;;;17.60;99.90;;;;;;5104012;28;20110;-90
2022/08/24 04:57:56;;;;;;;28.70;22.35;;;17.70;99.90;;;;;;5101650;28;20039;-91
2022/08/24 05:00:22;;;;;;;26.08;22.40;;;17.70;99.90;;;;;;5100723;28;20109;-91
2022/08/24 05:02:48;;;;;;;25.85;21.20;;;17.70;99.90;;;;;;5063696;28;20050;-90
2022/08/24 05:05:13;;;;;;;25.50;22.55;;;18.30;99.90;;;;;;5098093;28;20500;-90
2022/08/24 05:07:40;;;;;;;26.42;22.80;;;17.70;99.90;;;;;;5080817;28;20046;-90
2022/08/24 05:10:07;;;;;;;26.38;21.58;;;17.80;99.90;;;;;;5097320;28;20047;-90
2022/08/24 05:12:33;;;;;;;24.73;21.95;;;17.70;99.90;;;;;;5097106;28;20220;-90
2022/08/24 05:14:59;;;;;;;25.58;20.52;;;17.80;99.90;;;;;;5097235;28;20185;-90
2022/08/24 05:17:25;;;;;;;26.35;20.95;;;17.80;99.90;;;;;;5095999;28;20126;-91
2022/08/24 05:19:52;;;;;;;25.45;21.60;;;17.80;99.90;;;;;;5096954;28;20072;-90
2022/08/24 05:22:18;;;;;;;24.17;21.60;;;17.90;99.90;;;;;;5095631;28;20074;-91
2022/08/24 05:24:44;;;;;;;24.35;21.63;;;17.90;99.90;;;;;;5080502;28;20497;-90
2022/08/24 05:27:09;;;;;;;29.33;24.20;;;18.00;99.90;;;;;;5079609;28;20055;-91
2022/08/24 05:29:36;;;;;;;26.85;23.33;;;18.00;99.90;;;;;;5096709;28;20400;-91
2022/08/24 05:32:02;;;;;;;28.15;23.25;;;18.10;99.90;;;;;;5080025;28;20390;-90
2022/08/24 05:34:28;;;;;;;31.02;24.13;;;18.10;99.90;;;;;;5078903;28;20052;-90
2022/08/24 05:36:54;;;;;;;25.25;21.67;;;18.20;99.90;;;;;;5079865;28;20094;-91
2022/08/24 05:39:19;;;;;;;24.27;21.77;;;18.20;99.90;;;;;;5093134;28;20060;-90
2022/08/24 05:41:46;;;;;;;27.88;22.60;;;18.30;99.90;;;;;;5093940;28;20040;-91
2022/08/24 05:44:13;;;;;;;24.73;19.73;;;18.30;99.90;;;;;;5092730;28;20526;-91
2022/08/24 05:46:40;;;;;;;33.90;27.27;;;18.40;99.90;;;;;;5110862;28;20050;-89
2022/08/24 05:49:07;;;;;;;34.08;27.33;;;18.50;99.90;;;;;;5093077;28;20035;-91
2022/08/24 05:51:33;;;;;;;32.92;24.20;;;18.60;99.90;;;;;;5076926;28;20039;-90
2022/08/24 05:53:59;;;;;;;32.22;25.55;;;18.70;99.90;;;;;;5077224;28;20048;-91
2022/08/24 05:56:25;;;;;;;30.75;25.40;;;18.70;99.90;;;;;;5095016;28;20051;-90
2022/08/24 05:58:52;;;;;;;27.67;24.77;;;18.90;99.90;;;;;;5112543;28;20031;-91
2022/08/24 06:01:23;;;;;;;26.08;23.30;;;19.00;99.90;;;;;;5094062;28;20199;-91
2022/08/24 06:03:50;;;;;;;26.40;21.77;;;19.10;99.90;;;;;;5111128;28;20043;-91
2022/08/24 06:06:17;;;;;;;25.05;21.80;;;19.20;99.90;;;;;;5113892;28;20048;-90
2022/08/24 06:08:45;;;;;;;29.60;22.17;;;19.30;99.90;;;;;;5116019;28;20631;-91
2022/08/24 06:11:19;;;;;;;28.45;25.42;;;19.50;99.90;;;;;;5117163;28;20142;-92
2022/08/24 06:13:44;;;;;;;32.53;27.27;;;19.60;99.90;;;;;;5117073;28;20043;-91
2022/08/24 06:16:12;;;;;;;34.10;30.48;;;19.70;99.90;;;;;;5098054;28;20048;-90
2022/08/24 06:18:39;;;;;;;34.92;27.48;;;19.80;99.90;;;;;;5099666;28;20040;-91
2022/08/24 06:21:10;;;;;;;35.45;28.20;;;19.80;99.90;;;;;;5115074;28;20042;-91
2022/08/24 06:23:39;;;;;;;31.55;26.90;;;20.00;99.90;;;;;;5093694;28;20440;-90
2022/08/24 06:28:51;;;;;;;34.42;25.80;;;20.20;99.90;;;;;;5109824;28;20130;-91
2022/08/24 06:31:19;;;;;;;34.22;25.25;;;20.40;99.90;;;;;;5092919;28;20069;-90
2022/08/24 06:33:45;;;;;;;28.55;25.52;;;20.50;99.90;;;;;;5093510;28;20043;-91
2022/08/24 06:36:11;;;;;;;27.00;21.67;;;20.60;99.90;;;;;;5076053;28;20051;-90
2022/08/24 06:38:37;;;;;;;27.00;21.60;;;20.70;99.90;;;;;;5076242;28;20063;-92
2022/08/24 06:41:03;;;;;;;25.65;18.90;;;20.80;99.90;;;;;;5092933;28;20054;-92
2022/08/24 06:43:28;;;;;;;22.73;17.63;;;20.90;99.90;;;;;;5093647;28;20126;-91
2022/08/24 06:45:56;;;;;;;25.85;19.33;;;21.10;99.90;;;;;;5094763;28;20315;-91
2022/08/24 06:48:23;;;;;;;22.25;17.10;;;21.10;99.90;;;;;;5111116;28;20075;-91
2022/08/24 06:50:48;;;;;;;24.02;17.45;;;21.30;99.90;;;;;;5119122;28;20050;-92
2022/08/24 06:53:15;;;;;;;20.17;17.70;;;21.40;99.90;;;;;;5086003;28;20031;-92
2022/08/24 06:55:47;;;;;;;21.60;15.80;;;21.50;99.90;;;;;;5104254;28;20075;-92
2022/08/24 06:58:15;;;;;;;;;;;21.60;99.90;;;;;;5120150;28;20082;-92
2022/08/24 07:00:41;;;;;;;15.38;12.82;;;21.70;99.90;;;;;;5102982;28;19927;-93
2022/08/24 07:03:07;;;;;;;17.20;13.68;;;21.60;99.90;;;;;;5097162;28;20035;-92
2022/08/24 07:05:33;;;;;;;18.48;13.00;;;21.90;99.90;;;;;;5093172;28;20047;-92
2022/08/24 07:08:00;;;;;;;13.48;10.90;;;22.00;99.90;;;;;;5093819;28;20043;-92
2022/08/24 07:10:29;;;;;;;12.25;10.65;;;22.10;99.90;;;;;;5074960;28;20039;-94
2022/08/24 07:12:55;;;;;;;19.15;14.05;;;22.20;99.90;;;;;;5092587;28;20117;-91
2022/08/24 07:15:22;;;;;;;15.23;11.43;;;22.30;99.90;;;;;;5091423;28;20044;-93
2022/08/24 07:17:47;;;;;;;14.32;10.60;;;22.40;99.90;;;;;;5092209;28;20051;-92
2022/08/24 07:20:13;;;;;;;13.82;10.02;;;22.40;99.90;;;;;;5075315;28;20039;-92
2022/08/24 07:22:39;;;;;;;19.50;11.30;;;22.60;99.90;;;;;;5092010;28;20040;-92
2022/08/24 07:25:12;;;;;;;16.27;8.95;;;22.70;99.90;;;;;;5077655;28;20127;-94
2022/08/24 07:27:38;;;;;;;14.02;8.38;;;22.80;99.90;;;;;;5058572;28;20054;-92
2022/08/24 07:30:10;;;;;;;10.15;7.35;;;22.90;99.90;;;;;;5109156;28;20578;-91
2022/08/24 07:32:35;;;;;;;10.32;6.05;;;23.00;99.90;;;;;;5091934;28;20043;-93
2022/08/24 07:35:01;;;;;;;10.13;5.13;;;23.10;99.90;;;;;;5076282;28;20051;-92
2022/08/24 07:37:27;;;;;;;10.73;5.20;;;23.30;99.90;;;;;;5094646;28;20118;-92
2022/08/24 07:39:53;;;;;;;6.15;4.78;;;23.40;99.90;;;;;;5097679;28;20047;-93
2022/08/24 07:42:18;;;;;;;8.65;4.78;;;23.50;99.90;;;;;;5095683;28;20047;-93
2022/08/24 07:44:44;;;;;;;8.07;5.00;;;23.50;99.90;;;;;;5064500;28;20047;-92
2022/08/24 07:47:10;;;;;;;9.07;4.78;;;23.60;99.90;;;;;;5080909;28;20047;-93
2022/08/24 07:49:36;;;;;;;6.57;4.28;;;23.60;99.90;;;;;;5112286;28;20134;-92
2022/08/24 07:52:09;;;;;;;8.20;5.18;;;23.70;99.90;;;;;;5113435;28;20562;-91
2022/08/24 07:54:35;;;;;;;6.13;4.45;;;23.80;99.90;;;;;;5061729;28;20097;-93
2022/08/24 07:57:03;;;;;;;6.65;4.05;;;23.90;99.90;;;;;;5110456;28;20039;-92
2022/08/24 07:59:29;;;;;;;5.47;3.33;;;24.00;99.90;;;;;;5110672;28;20074;-93
2022/08/24 08:01:54;;;;;;;4.00;3.50;;;24.10;99.90;;;;;;5091934;28;20759;-91
2022/08/24 08:04:23;;;;;;;6.38;4.00;;;24.20;99.90;;;;;;5075483;28;20043;-94
2022/08/24 08:06:50;;;;;;;3.90;2.78;;;24.30;99.90;;;;;;5108090;28;20044;-94
2022/08/24 08:09:16;;;;;;;8.60;4.63;;;24.40;99.90;;;;;;5108523;28;20032;-93
2022/08/24 08:11:43;;;;;;;6.18;4.07;;;24.40;99.90;;;;;;5075592;28;20397;-93
2022/08/24 08:14:09;;;;;;;5.95;3.20;;;24.50;99.90;;;;;;5092076;28;20036;-93
2022/08/24 08:16:37;;;;;;;4.45;3.78;;;24.60;99.90;;;;;;5075142;28;20042;-93
2022/08/24 08:19:05;;;;;;;5.88;3.78;;;24.70;99.90;;;;;;5107900;28;20116;-93
2022/08/24 08:24:16;;;;;;;4.82;2.70;;;24.90;99.90;;;;;;5094708;28;20131;-93
2022/08/24 08:26:44;;;;;;;7.68;3.33;;;25.00;99.90;;;;;;5078693;28;20096;-93
2022/08/24 08:29:12;;;;;;;6.57;3.63;;;25.10;99.90;;;;;;5112904;28;20494;-94
2022/08/24 08:31:39;;;;;;;5.78;3.45;;;25.20;99.90;;;;;;5111682;28;20085;-92
2022/08/24 08:34:06;;;;;;;5.35;3.20;;;25.20;99.90;;;;;;5095574;28;20047;-93
2022/08/24 08:36:33;;;;;;;8.95;2.72;;;25.30;99.90;;;;;;5095322;28;20371;-93
2022/08/24 08:38:59;;;;;;;4.55;2.65;;;25.40;99.90;;;;;;5095506;28;20052;-93
2022/08/24 08:42:02;;;;;;;9.38;3.15;;;25.50;99.90;;;;;;5077663;28;20035;-93
2022/08/24 08:44:49;;;;;;;5.07;2.75;;;25.60;99.90;;;;;;5094927;28;20036;-93
2022/08/24 08:47:36;;;;;;;6.82;3.60;;;25.80;99.90;;;;;;5112118;28;20039;-93
2022/08/24 08:50:24;;;;;;;6.85;3.67;;;25.90;99.90;;;;;;5110692;28;20040;-93
2022/08/24 08:53:39;;;;;;;4.88;3.00;;;26.00;99.90;;;;;;5111044;28;20132;-93
2022/08/24 08:56:10;;;;;;;5.97;2.63;;;26.10;99.90;;;;;;5094860;28;20092;-94
2022/08/24 08:59:00;;;;;;;5.53;2.75;;;26.20;99.90;;;;;;5109954;28;20123;-94
2022/08/24 09:02:14;;;;;;;7.85;3.45;;;26.30;99.90;;;;;;5094345;28;20456;-93
2022/08/24 09:05:10;;;;;;;4.60;3.38;;;26.40;99.90;;;;;;5098164;28;20456;-94
2022/08/24 09:07:42;;;;;;;5.72;2.78;;;26.50;99.90;;;;;;5110533;28;20505;-94
2022/08/24 09:10:11;;;;;;;;;;;26.60;99.90;;;;;;5111025;28;20145;-95
2022/08/24 09:13:00;;;;;;;6.82;3.38;;;26.60;99.90;;;;;;5095157;28;19923;-93
2022/08/24 09:15:50;;;;;;;6.05;2.50;;;26.70;99.90;;;;;;5084240;28;20047;-94
2022/08/24 09:18:40;;;;;;;5.95;2.60;;;26.80;99.90;;;;;;5110723;28;20048;-95
2022/08/24 09:21:34;;;;;;;4.88;2.83;;;26.90;99.90;;;;;;5094037;28;20040;-95
2022/08/24 09:24:32;;;;;;;5.13;2.70;;;26.90;99.90;;;;;;5078980;28;20055;-93
2022/08/24 09:27:42;;;;;;;6.35;2.65;;;27.00;99.90;;;;;;5106197;28;20058;-93
2022/08/24 09:30:22;;;;;;;3.47;2.40;;;27.10;99.90;;;;;;5061030;28;20054;-94
2022/08/24 09:33:08;;;;;;;4.22;2.50;;;27.20;99.90;;;;;;5092417;28;20044;-93
2022/08/24 09:35:59;;;;;;;6.03;2.70;;;27.30;99.90;;;;;;5110248;28;20047;-93
2022/08/24 09:38:28;;;;;;;5.90;2.00;;;27.30;99.90;;;;;;5110505;28;20694;-93
2022/08/24 09:41:14;;;;;;;2.75;1.55;;;27.30;99.90;;;;;;5108379;28;20047;-94
2022/08/24 09:44:23;;;;;;;3.45;1.95;;;27.40;99.90;;;;;;5110197;28;20517;-93
2022/08/24 09:47:13;;;;;;;3.67;2.13;;;27.50;99.90;;;;;;5077632;28;20083;-94
2022/08/24 09:50:17;;;;;;;4.97;2.22;;;27.60;99.90;;;;;;5092154;28;20397;-92
2022/08/24 09:53:04;;;;;;;3.17;2.00;;;27.70;99.90;;;;;;5092867;28;20553;-93
2022/08/24 09:55:55;;;;;;;4.88;1.88;;;27.70;99.90;;;;;;5093207;28;20044;-93
2022/08/24 09:58:43;;;;;;;6.15;2.33;;;27.70;99.90;;;;;;5091595;28;20091;-93
2022/08/24 10:01:34;;;;;;;4.00;2.65;;;27.80;99.90;;;;;;5093054;28;20402;-93
2022/08/24 10:04:16;;;;;;;3.42;2.40;;;27.90;99.90;;;;;;5092924;28;20079;-93
2022/08/24 10:07:04;;;;;;;5.35;2.55;;;27.90;99.90;;;;;;5091657;28;20059;-95
2022/08/24 10:09:41;;;;;;;4.53;2.17;;;27.90;99.90;;;;;;5092514;28;20559;-94
2022/08/24 10:12:40;;;;;;;4.03;2.00;;;27.90;99.90;;;;;;5092945;28;20122;-94
2022/08/24 10:15:17;;;;;;;12.40;2.17;;;28.00;99.90;;;;;;5109165;28;20475;-95
2022/08/24 10:17:55;;;;;;;4.70;2.38;;;28.10;99.90;;;;;;5093270;28;20073;-95
2022/08/24 10:20:24;;;;;;;4.00;2.78;;;28.10;99.90;;;;;;5092555;28;20051;-93
2022/08/24 10:23:16;;;;;;;5.38;2.10;;;28.20;99.90;;;;;;5116566;28;20083;-92
2022/08/24 10:26:14;;;;;;;3.92;2.00;;;28.30;99.90;;;;;;5120525;28;20035;-93
2022/08/24 10:28:56;;;;;;;2.45;1.35;;;28.40;99.90;;;;;;5094607;28;20054;-94
2022/08/24 10:31:49;;;;;;;5.03;2.08;;;28.50;99.90;;;;;;5120510;28;20039;-93
2022/08/24 10:34:44;;;;;;;3.53;1.40;;;28.60;99.20;;;;;;5121011;28;20052;-94
2022/08/24 10:37:38;;;;;;;2.92;1.20;;;28.70;99.90;;;;;;5116213;28;20047;-94
2022/08/24 10:40:13;;;;;;;3.97;1.33;;;28.80;99.90;;;;;;5114463;28;20095;-94
2022/08/24 10:43:35;;;;;;;3.97;2.10;;;28.90;99.90;;;;;;5114091;28;20488;-93
2022/08/24 10:46:19;;;;;;;2.95;1.52;;;29.00;99.90;;;;;;5033464;28;20400;-93
2022/08/24 10:49:10;;;;;;;2.05;1.27;;;29.10;99.90;;;;;;5050581;28;20548;-93
2022/08/24 10:52:06;;;;;;;4.70;1.55;;;29.20;98.90;;;;;;5100148;28;20059;-94
2022/08/24 10:54:33;;;;;;;5.38;2.28;;;29.40;99.90;;;;;;5107717;28;20051;-92
2022/08/24 10:56:59;;;;;;;5.90;2.20;;;29.50;99.40;;;;;;5109058;28;20074;-92
2022/08/24 10:59:43;;;;;;;4.50;1.60;;;29.50;98.70;;;;;;5091369;28;20515;-93
2022/08/24 11:02:30;;;;;;;2.85;1.90;;;29.50;97.90;;;;;;5104004;28;20168;-96
2022/08/24 11:05:06;;;;;;;2.15;1.20;;;29.60;96.80;;;;;;5092347;28;20208;-95
2022/08/24 11:07:33;;;;;;;5.32;1.42;;;29.70;98.30;;;;;;5091117;28;20047;-95
2022/08/24 11:10:02;;;;;;;1.48;1.08;;;29.80;97.50;;;;;;5108988;28;20035;-95
2022/08/24 11:12:34;;;;;;;4.40;1.48;;;29.90;97.00;;;;;;5108591;28;20040;-93
2022/08/24 11:15:22;;;;;;;7.35;1.35;;;30.00;95.80;;;;;;5108121;28;20070;-94
2022/08/24 11:18:01;;;;;;;1.58;1.42;;;30.10;96.60;;;;;;5092163;28;20490;-93
2022/08/24 11:20:31;;;;;;;3.80;1.85;;;30.10;94.80;;;;;;5104243;28;20047;-93
2022/08/24 11:23:04;;;;;;;3.58;1.30;;;30.20;95.50;;;;;;5108881;28;20046;-93
2022/08/24 11:25:33;;;;;;;4.32;1.35;;;30.30;95.80;;;;;;5094687;28;20048;-93
2022/08/24 11:28:05;;;;;;;3.25;1.50;;;30.40;95.40;;;;;;5110036;28;20044;-94
2022/08/24 11:30:38;;;;;;;9.30;2.17;;;30.60;94.10;;;;;;5111138;28;20043;-92
2022/08/24 11:33:29;;;;;;;6.40;1.30;;;30.70;94.30;;;;;;5110011;28;20123;-94
2022/08/24 11:35:55;;;;;;;1.35;1.00;;;30.70;91.20;;;;;;5101774;28;20374;-92
2022/08/24 11:38:29;;;;;;;1.48;1.02;;;30.80;92.50;;;;;;5084992;28;20059;-93
2022/08/24 11:41:07;;;;;;;2.85;1.05;;;30.80;92.10;;;;;;5117121;28;20051;-93
2022/08/24 11:43:56;;;;;;;2.13;1.05;;;30.70;92.30;;;;;;5125013;28;20096;-93
2022/08/24 11:46:27;;;;;;;2.33;1.40;;;30.60;92.70;;;;;;5121324;28;20039;-93
2022/08/24 11:49:10;;;;;;;2.40;1.60;;;30.70;92.80;;;;;;5104385;28;20054;-94
2022/08/24 11:51:56;;;;;;;3.90;1.08;;;30.90;92.60;;;;;;5101291;28;20043;-94
2022/08/24 11:54:37;;;;;;;2.53;1.10;;;31.20;92.40;;;;;;5116109;28;20046;-93
2022/08/24 11:57:12;;;;;;;1.85;1.23;;;31.40;89.60;;;;;;5118255;28;20127;-94
2022/08/24 12:00:00;;;;;;;4.75;1.23;;;31.40;90.60;;;;;;5102438;28;20119;-95
2022/08/24 12:02:41;;;;;;;5.47;1.13;;;31.40;89.90;;;;;;5117561;28;20498;-93
2022/08/24 12:05:16;;;;;;;2.25;0.80;;;31.40;88.80;;;;;;5102411;28;20043;-93
2022/08/24 12:08:03;;;;;;;2.10;1.10;;;31.50;89.80;;;;;;5115986;28;20046;-93
2022/08/24 12:10:36;;;;;;;1.83;0.70;;;31.40;81.70;;;;;;5098988;28;20043;-94
2022/08/24 12:13:11;;;;;;;1.52;1.00;;;31.10;84.30;;;;;;5099391;28;20130;-94
2022/08/24 12:15:42;;;;;;;1.20;1.00;;;31.00;85.70;;;;;;5095127;28;20054;-93
2022/08/24 12:18:23;;;;;;;4.43;1.30;;;30.90;85.30;;;;;;5098144;28;20059;-92
2022/08/24 12:20:51;;;;;;;3.40;1.13;;;30.90;85.80;;;;;;5112610;28;20527;-93
2022/08/24 12:23:28;;;;;;;4.68;1.05;;;30.90;85.80;;;;;;5095364;28;20046;-94
2022/08/24 12:26:00;;;;;;;2.17;1.10;;;30.90;86.00;;;;;;5112494;28;20062;-93
2022/08/24 12:28:47;;;;;;;1.85;0.77;;;31.00;84.10;;;;;;5094161;28;20045;-93
2022/08/24 12:31:15;;;;;;;1.02;0.82;;;31.20;81.40;;;;;;5112424;28;20401;-94
2022/08/24 12:33:48;;;;;;;4.15;0.90;;;31.40;83.70;;;;;;5094654;28;20144;-94
2022/08/24 12:36:44;;;;;;;1.80;0.80;;;31.60;81.80;;;;;;5110781;28;20035;-94
2022/08/24 12:39:14;;;;;;;1.52;1.05;;;31.50;79.70;;;;;;5100667;28;20055;-93
2022/08/24 12:42:09;;;;;;;2.35;1.10;;;31.40;82.30;;;;;;5110323;28;20052;-93
2022/08/24 12:44:48;;;;;;;1.23;0.70;;;31.50;85.70;;;;;;5111069;28;20043;-93
2022/08/24 12:47:25;;;;;;;3.17;0.68;;;31.80;81.90;;;;;;5111659;28;20047;-94
2022/08/24 12:50:07;;;;;;;5.60;0.80;;;32.00;78.40;;;;;;5093230;28;20051;-94
2022/08/24 12:52:43;;;;;;;1.55;0.77;;;32.50;75.90;;;;;;5111247;28;20055;-93
2022/08/24 12:55:59;;;;;;;0.82;0.45;;;32.80;72.00;;;;;;5093721;28;20366;-92
2022/08/24 12:58:43;;;;;;;2.22;0.93;;;32.70;64.50;;;;;;5078864;28;20125;-94
2022/08/24 13:01:13;;;;;;;0.93;0.60;;;32.50;64.50;;;;;;5111236;28;20497;-95
2022/08/24 13:03:42;;;;;;;0.70;0.70;;;32.20;68.60;;;;;;5093141;28;20036;-92
2022/08/24 13:06:25;;;;;;;1.15;0.88;;;32.10;69.60;;;;;;5093529;28;20032;-93
2022/08/24 13:09:04;;;;;;;1.80;0.85;;;32.00;68.90;;;;;;5094037;28;20039;-93
2022/08/24 13:11:33;;;;;;;3.45;1.30;;;31.80;69.90;;;;;;5076697;28;20035;-94